sensor_id;sensor_type;location;lat;lon;timestamp;temperature;humidity
10433;DHT22;5263;48.680;9.004;2023-04-01T00:00:20;7.20;99.90
10433;DHT22;5263;48.680;9.004;2023-04-01T00:02:46;7.20;99.90
10433;DHT22;5263;48.680;9.004;2023-04-01T00:05:12;7.20;99.90
10433;DHT22;5263;48.680;9.004;2023-04-01T00:07:39;7.30;99.90
10433;DHT22;5263;48.680;9.004;2023-04-01T00:10:07;7.10;99.90
10433;DHT22;5263;48.680;9.004;2023-04-01T00:12:33;7.20;99.90
10433;DHT22;5263;48.680;9.004;2023-04-01T00:15:00;7.10;99.90
10433;DHT22;5263;48.680;9.004;2023-04-01T00:17:26;7.30;99.90
10433;DHT22;5263;48.680;9.004;2023-04-01T00:19:54;7.20;99.90
10433;DHT22;5263;48.680;9.004;2023-04-01T00:22:19;7.20;99.90
10433;DHT22;5263;48.680;9.004;2023-04-01T00:24:45;7.10;99.90
10433;DHT22;5263;48.680;9.004;2023-04-01T00:27:11;7.20;99.90
10433;DHT22;5263;48.680;9.004;2023-04-01T00:29:36;7.20;99.90
10433;DHT22;5263;48.680;9.004;2023-04-01T00:32:02;7.30;99.90
10433;DHT22;5263;48.680;9.004;2023-04-01T00:34:27;7.20;99.90
10433;DHT22;5263;48.680;9.004;2023-04-01T00:36:53;7.20;99.90
10433;DHT22;5263;48.680;9.004;2023-04-01T00:39:20;7.10;99.90
10433;DHT22;5263;48.680;9.004;2023-04-01T00:41:46;7.10;99.90
10433;DHT22;5263;48.680;9.004;2023-04-01T00:44:22;7.00;99.90
10433;DHT22;5263;48.680;9.004;2023-04-01T00:46:48;7.10;99.90
10433;DHT22;5263;48.680;9.004;2023-04-01T00:49:16;7.20;99.90
10433;DHT22;5263;48.680;9.004;2023-04-01T00:51:44;7.10;99.90
10433;DHT22;5263;48.680;9.004;2023-04-01T00:54:12;7.20;99.90
10433;DHT22;5263;48.680;9.004;2023-04-01T00:56:58;7.00;99.90
10433;DHT22;5263;48.680;9.004;2023-04-01T00:59:29;7.00;99.90
10433;DHT22;5263;48.680;9.004;2023-04-01T01:01:55;7.00;99.90
10433;DHT22;5263;48.680;9.004;2023-04-01T01:04:33;7.00;99.90
10433;DHT22;5263;48.680;9.004;2023-04-01T01:23:21;7.00;99.90
10433;DHT22;5263;48.680;9.004;2023-04-01T01:34:51;7.00;99.90
10433;DHT22;5263;48.680;9.004;2023-04-01T01:37:20;7.00;99.90
10433;DHT22;5263;48.680;9.004;2023-04-01T01:39:56;7.00;99.90
10433;DHT22;5263;48.680;9.004;2023-04-01T01:42:25;7.00;99.90
10433;DHT22;5263;48.680;9.004;2023-04-01T01:44:53;6.90;99.90
10433;DHT22;5263;48.680;9.004;2023-04-01T01:47:22;6.90;99.90
10433;DHT22;5263;48.680;9.004;2023-04-01T01:49:48;6.80;99.90
10433;DHT22;5263;48.680;9.004;2023-04-01T01:52:16;6.80;99.90
10433;DHT22;5263;48.680;9.004;2023-04-01T01:54:53;6.90;99.90
10433;DHT22;5263;48.680;9.004;2023-04-01T01:57:39;6.80;99.90
10433;DHT22;5263;48.680;9.004;2023-04-01T02:00:10;6.80;99.90
10433;DHT22;5263;48.680;9.004;2023-04-01T02:02:44;6.80;99.90
10433;DHT22;5263;48.680;9.004;2023-04-01T02:05:14;6.80;99.90
10433;DHT22;5263;48.680;9.004;2023-04-01T02:07:44;6.70;99.90
10433;DHT22;5263;48.680;9.004;2023-04-01T02:10:12;6.70;99.90
10433;DHT22;5263;48.680;9.004;2023-04-01T02:12:39;6.70;99.90
10433;DHT22;5263;48.680;9.004;2023-04-01T02:15:09;6.70;99.90
10433;DHT22;5263;48.680;9.004;2023-04-01T02:17:39;6.70;99.90
10433;DHT22;5263;48.680;9.004;2023-04-01T02:20:12;6.80;99.90
10433;DHT22;5263;48.680;9.004;2023-04-01T02:22:52;6.60;99.90
10433;DHT22;5263;48.680;9.004;2023-04-01T02:25:22;6.70;99.90
10433;DHT22;5263;48.680;9.004;2023-04-01T02:27:48;6.70;99.90
10433;DHT22;5263;48.680;9.004;2023-04-01T02:30:16;6.60;99.90
10433;DHT22;5263;48.680;9.004;2023-04-01T02:32:42;6.60;99.90
10433;DHT22;5263;48.680;9.004;2023-04-01T02:35:13;6.60;99.90
10433;DHT22;5263;48.680;9.004;2023-04-01T02:37:41;6.60;99.90
10433;DHT22;5263;48.680;9.004;2023-04-01T02:40:10;6.60;99.90
10433;DHT22;5263;48.680;9.004;2023-04-01T02:42:36;6.50;99.90
10433;DHT22;5263;48.680;9.004;2023-04-01T02:45:03;6.60;99.90
10433;DHT22;5263;48.680;9.004;2023-04-01T02:47:28;6.50;99.90
10433;DHT22;5263;48.680;9.004;2023-04-01T02:49:54;6.40;99.90
10433;DHT22;5263;48.680;9.004;2023-04-01T02:52:24;6.50;99.90
10433;DHT22;5263;48.680;9.004;2023-04-01T02:54:50;6.50;99.90
10433;DHT22;5263;48.680;9.004;2023-04-01T02:57:16;6.50;99.90
10433;DHT22;5263;48.680;9.004;2023-04-01T02:59:41;6.50;99.90
10433;DHT22;5263;48.680;9.004;2023-04-01T03:02:07;6.60;99.90
10433;DHT22;5263;48.680;9.004;2023-04-01T03:04:33;6.60;99.90
10433;DHT22;5263;48.680;9.004;2023-04-01T03:06:58;6.60;99.90
10433;DHT22;5263;48.680;9.004;2023-04-01T03:09:24;6.70;99.90
10433;DHT22;5263;48.680;9.004;2023-04-01T03:11:49;6.70;99.90
10433;DHT22;5263;48.680;9.004;2023-04-01T03:14:15;6.70;99.90
10433;DHT22;5263;48.680;9.004;2023-04-01T03:16:41;6.70;99.90
10433;DHT22;5263;48.680;9.004;2023-04-01T03:19:06;6.70;99.90
10433;DHT22;5263;48.680;9.004;2023-04-01T03:21:32;6.60;99.90
10433;DHT22;5263;48.680;9.004;2023-04-01T03:23:58;6.70;99.90
10433;DHT22;5263;48.680;9.004;2023-04-01T03:26:24;6.70;99.90
10433;DHT22;5263;48.680;9.004;2023-04-01T03:28:52;6.70;99.90
10433;DHT22;5263;48.680;9.004;2023-04-01T03:31:17;6.60;99.90
10433;DHT22;5263;48.680;9.004;2023-04-01T03:33:43;6.60;99.90
10433;DHT22;5263;48.680;9.004;2023-04-01T03:36:09;6.50;99.90
10433;DHT22;5263;48.680;9.004;2023-04-01T03:38:36;6.60;99.90
10433;DHT22;5263;48.680;9.004;2023-04-01T03:41:03;6.70;99.90
10433;DHT22;5263;48.680;9.004;2023-04-01T03:43:28;6.70;99.90
10433;DHT22;5263;48.680;9.004;2023-04-01T03:45:54;6.60;99.90
10433;DHT22;5263;48.680;9.004;2023-04-01T03:48:20;6.70;99.90
10433;DHT22;5263;48.680;9.004;2023-04-01T03:50:46;6.60;99.90
10433;DHT22;5263;48.680;9.004;2023-04-01T03:53:12;6.50;99.90
10433;DHT22;5263;48.680;9.004;2023-04-01T03:55:38;6.60;99.90
10433;DHT22;5263;48.680;9.004;2023-04-01T03:58:04;6.60;99.90
10433;DHT22;5263;48.680;9.004;2023-04-01T04:00:30;6.60;99.90
10433;DHT22;5263;48.680;9.004;2023-04-01T04:02:57;6.50;99.90
10433;DHT22;5263;48.680;9.004;2023-04-01T04:05:23;6.50;99.90
10433;DHT22;5263;48.680;9.004;2023-04-01T04:07:49;6.50;99.90
10433;DHT22;5263;48.680;9.004;2023-04-01T04:10:15;6.40;99.90
10433;DHT22;5263;48.680;9.004;2023-04-01T04:12:41;6.30;99.90
10433;DHT22;5263;48.680;9.004;2023-04-01T04:15:07;6.40;99.90
10433;DHT22;5263;48.680;9.004;2023-04-01T04:17:33;6.20;99.90
10433;DHT22;5263;48.680;9.004;2023-04-01T04:19:59;6.20;99.90
10433;DHT22;5263;48.680;9.004;2023-04-01T04:22:25;6.20;99.90
10433;DHT22;5263;48.680;9.004;2023-04-01T04:24:50;6.20;99.90
10433;DHT22;5263;48.680;9.004;2023-04-01T04:27:16;6.20;99.90
10433;DHT22;5263;48.680;9.004;2023-04-01T04:29:42;6.10;99.90
10433;DHT22;5263;48.680;9.004;2023-04-01T04:32:08;6.10;99.90
10433;DHT22;5263;48.680;9.004;2023-04-01T04:34:33;6.10;99.90
10433;DHT22;5263;48.680;9.004;2023-04-01T04:36:59;6.20;99.90
10433;DHT22;5263;48.680;9.004;2023-04-01T04:39:25;6.10;99.90
10433;DHT22;5263;48.680;9.004;2023-04-01T04:41:50;6.10;99.90
10433;DHT22;5263;48.680;9.004;2023-04-01T04:44:16;6.10;99.90
10433;DHT22;5263;48.680;9.004;2023-04-01T04:46:41;6.10;99.90
10433;DHT22;5263;48.680;9.004;2023-04-01T04:49:07;6.10;99.90
10433;DHT22;5263;48.680;9.004;2023-04-01T04:51:33;6.20;99.90
10433;DHT22;5263;48.680;9.004;2023-04-01T04:54:02;6.20;99.90
10433;DHT22;5263;48.680;9.004;2023-04-01T04:56:28;6.30;99.90
10433;DHT22;5263;48.680;9.004;2023-04-01T04:58:54;6.40;99.90
10433;DHT22;5263;48.680;9.004;2023-04-01T05:01:20;6.30;99.90
10433;DHT22;5263;48.680;9.004;2023-04-01T05:03:46;6.40;99.90
10433;DHT22;5263;48.680;9.004;2023-04-01T05:06:13;6.40;99.90
10433;DHT22;5263;48.680;9.004;2023-04-01T05:08:40;6.40;99.90
10433;DHT22;5263;48.680;9.004;2023-04-01T05:11:09;6.40;99.90
10433;DHT22;5263;48.680;9.004;2023-04-01T05:13:36;6.50;99.90
10433;DHT22;5263;48.680;9.004;2023-04-01T05:16:02;6.50;99.90
10433;DHT22;5263;48.680;9.004;2023-04-01T05:18:27;6.60;99.90
10433;DHT22;5263;48.680;9.004;2023-04-01T05:20:54;6.70;99.90
10433;DHT22;5263;48.680;9.004;2023-04-01T05:23:21;6.70;99.90
10433;DHT22;5263;48.680;9.004;2023-04-01T05:25:50;6.80;99.90
10433;DHT22;5263;48.680;9.004;2023-04-01T05:28:19;6.90;99.90
10433;DHT22;5263;48.680;9.004;2023-04-01T05:30:45;6.90;99.90
10433;DHT22;5263;48.680;9.004;2023-04-01T05:33:12;6.90;99.90
10433;DHT22;5263;48.680;9.004;2023-04-01T05:35:39;7.00;99.90
10433;DHT22;5263;48.680;9.004;2023-04-01T05:38:05;7.00;99.90
10433;DHT22;5263;48.680;9.004;2023-04-01T05:40:31;7.00;99.90
10433;DHT22;5263;48.680;9.004;2023-04-01T05:42:58;6.90;99.90
10433;DHT22;5263;48.680;9.004;2023-04-01T05:45:24;7.00;99.90
10433;DHT22;5263;48.680;9.004;2023-04-01T05:47:50;6.90;99.90
10433;DHT22;5263;48.680;9.004;2023-04-01T05:50:16;7.00;99.90
10433;DHT22;5263;48.680;9.004;2023-04-01T05:52:41;7.00;99.90
10433;DHT22;5263;48.680;9.004;2023-04-01T05:55:07;7.20;99.90
10433;DHT22;5263;48.680;9.004;2023-04-01T05:57:33;7.30;99.90
10433;DHT22;5263;48.680;9.004;2023-04-01T05:59:59;7.40;99.90
10433;DHT22;5263;48.680;9.004;2023-04-01T06:02:24;7.40;99.90
10433;DHT22;5263;48.680;9.004;2023-04-01T06:04:59;7.60;99.90
10433;DHT22;5263;48.680;9.004;2023-04-01T06:07:27;7.60;99.90
10433;DHT22;5263;48.680;9.004;2023-04-01T06:09:54;7.60;99.90
10433;DHT22;5263;48.680;9.004;2023-04-01T06:15:39;7.60;99.90
10433;DHT22;5263;48.680;9.004;2023-04-01T06:18:41;7.60;99.90
10433;DHT22;5263;48.680;9.004;2023-04-01T06:24:36;7.60;99.90
10433;DHT22;5263;48.680;9.004;2023-04-01T06:27:36;7.50;99.90
10433;DHT22;5263;48.680;9.004;2023-04-01T06:54:46;7.40;99.90
10433;DHT22;5263;48.680;9.004;2023-04-01T06:57:32;7.30;99.90
10433;DHT22;5263;48.680;9.004;2023-04-01T07:00:01;7.50;99.90
10433;DHT22;5263;48.680;9.004;2023-04-01T07:02:39;7.60;99.90
10433;DHT22;5263;48.680;9.004;2023-04-01T07:05:08;7.50;99.90
10433;DHT22;5263;48.680;9.004;2023-04-01T07:07:49;7.60;99.90
10433;DHT22;5263;48.680;9.004;2023-04-01T07:11:14;7.60;99.90
10433;DHT22;5263;48.680;9.004;2023-04-01T07:13:19;7.60;99.90
10433;DHT22;5263;48.680;9.004;2023-04-01T07:21:14;7.60;99.90
10433;DHT22;5263;48.680;9.004;2023-04-01T07:23:44;7.60;99.90
10433;DHT22;5263;48.680;9.004;2023-04-01T07:26:19;7.60;99.90
10433;DHT22;5263;48.680;9.004;2023-04-01T07:28:46;7.60;99.90
10433;DHT22;5263;48.680;9.004;2023-04-01T07:36:47;7.50;99.90
10433;DHT22;5263;48.680;9.004;2023-04-01T07:45:15;7.60;99.90
10433;DHT22;5263;48.680;9.004;2023-04-01T07:50:50;7.70;99.90
10433;DHT22;5263;48.680;9.004;2023-04-01T07:53:42;7.70;99.90
10433;DHT22;5263;48.680;9.004;2023-04-01T07:56:38;7.70;99.90
10433;DHT22;5263;48.680;9.004;2023-04-01T08:05:02;7.70;99.90
10433;DHT22;5263;48.680;9.004;2023-04-01T08:10:21;7.60;99.90
10433;DHT22;5263;48.680;9.004;2023-04-01T08:15:46;7.60;99.90
10433;DHT22;5263;48.680;9.004;2023-04-01T08:21:01;7.60;99.90
10433;DHT22;5263;48.680;9.004;2023-04-01T08:23:33;7.50;99.90
10433;DHT22;5263;48.680;9.004;2023-04-01T08:26:34;7.60;99.90
10433;DHT22;5263;48.680;9.004;2023-04-01T08:32:03;7.40;99.90
10433;DHT22;5263;48.680;9.004;2023-04-01T08:34:36;7.30;99.90
10433;DHT22;5263;48.680;9.004;2023-04-01T08:37:11;7.30;99.90
10433;DHT22;5263;48.680;9.004;2023-04-01T08:39:43;7.20;99.90
10433;DHT22;5263;48.680;9.004;2023-04-01T08:45:34;7.10;99.90
10433;DHT22;5263;48.680;9.004;2023-04-01T08:48:11;7.10;99.90
10433;DHT22;5263;48.680;9.004;2023-04-01T08:56:25;7.20;99.90
10433;DHT22;5263;48.680;9.004;2023-04-01T09:04:25;7.60;99.90
10433;DHT22;5263;48.680;9.004;2023-04-01T09:10:06;7.80;99.90
10433;DHT22;5263;48.680;9.004;2023-04-01T09:12:35;8.00;99.90
10433;DHT22;5263;48.680;9.004;2023-04-01T09:24:25;8.40;99.90
10433;DHT22;5263;48.680;9.004;2023-04-01T09:27:05;8.40;99.90
10433;DHT22;5263;48.680;9.004;2023-04-01T09:48:38;8.10;99.90
10433;DHT22;5263;48.680;9.004;2023-04-01T10:27:43;8.60;99.90
10433;DHT22;5263;48.680;9.004;2023-04-01T10:30:28;8.90;99.90
10433;DHT22;5263;48.680;9.004;2023-04-01T10:47:24;11.80;99.90
10433;DHT22;5263;48.680;9.004;2023-04-01T10:50:13;12.00;99.90
10433;DHT22;5263;48.680;9.004;2023-04-01T10:56:44;10.60;99.90
10433;DHT22;5263;48.680;9.004;2023-04-01T11:15:51;10.40;99.90
10433;DHT22;5263;48.680;9.004;2023-04-01T11:18:48;10.70;99.90
10433;DHT22;5263;48.680;9.004;2023-04-01T11:38:20;10.60;99.90
10433;DHT22;5263;48.680;9.004;2023-04-01T11:44:29;10.20;99.90
10433;DHT22;5263;48.680;9.004;2023-04-01T11:47:19;9.80;99.90
10433;DHT22;5263;48.680;9.004;2023-04-01T11:52:33;10.00;99.90
10433;DHT22;5263;48.680;9.004;2023-04-01T11:55:19;10.30;99.90
10433;DHT22;5263;48.680;9.004;2023-04-01T12:09:14;10.70;99.90
10433;DHT22;5263;48.680;9.004;2023-04-01T12:11:51;10.70;99.90
10433;DHT22;5263;48.680;9.004;2023-04-01T12:14:44;10.40;99.90
10433;DHT22;5263;48.680;9.004;2023-04-01T12:17:39;10.40;99.90
10433;DHT22;5263;48.680;9.004;2023-04-01T12:25:48;9.60;99.90
10433;DHT22;5263;48.680;9.004;2023-04-01T12:31:31;9.10;99.90
10433;DHT22;5263;48.680;9.004;2023-04-01T12:34:26;8.90;99.90
10433;DHT22;5263;48.680;9.004;2023-04-01T12:46:15;9.70;99.90
10433;DHT22;5263;48.680;9.004;2023-04-01T12:48:54;10.10;99.90
10433;DHT22;5263;48.680;9.004;2023-04-01T13:02:59;10.10;99.90
10433;DHT22;5263;48.680;9.004;2023-04-01T13:05:18;10.30;99.90
10433;DHT22;5263;48.680;9.004;2023-04-01T13:08:05;9.90;99.90
10433;DHT22;5263;48.680;9.004;2023-04-01T13:11:00;10.00;99.90
10433;DHT22;5263;48.680;9.004;2023-04-01T13:16:23;9.70;99.90
10433;DHT22;5263;48.680;9.004;2023-04-01T13:24:09;10.60;99.90
10433;DHT22;5263;48.680;9.004;2023-04-01T13:26:40;10.20;99.90
10433;DHT22;5263;48.680;9.004;2023-04-01T13:29:21;10.00;99.90
10433;DHT22;5263;48.680;9.004;2023-04-01T13:32:14;9.80;99.90
10433;DHT22;5263;48.680;9.004;2023-04-01T13:35:24;9.70;99.90
10433;DHT22;5263;48.680;9.004;2023-04-01T13:43:47;10.00;99.90
10433;DHT22;5263;48.680;9.004;2023-04-01T13:54:33;9.60;99.90
10433;DHT22;5263;48.680;9.004;2023-04-01T14:00:10;10.20;99.90
10433;DHT22;5263;48.680;9.004;2023-04-01T14:03:14;9.80;99.90
10433;DHT22;5263;48.680;9.004;2023-04-01T14:08:29;10.00;99.90
10433;DHT22;5263;48.680;9.004;2023-04-01T14:20:07;10.00;99.90
10433;DHT22;5263;48.680;9.004;2023-04-01T14:29:21;9.60;99.90
10433;DHT22;5263;48.680;9.004;2023-04-01T14:32:16;9.40;99.90
10433;DHT22;5263;48.680;9.004;2023-04-01T14:35:02;9.70;99.90
10433;DHT22;5263;48.680;9.004;2023-04-01T14:37:55;10.00;99.90
10433;DHT22;5263;48.680;9.004;2023-04-01T14:45:59;9.80;99.90
10433;DHT22;5263;48.680;9.004;2023-04-01T14:51:20;9.80;99.90
10433;DHT22;5263;48.680;9.004;2023-04-01T14:59:14;10.30;99.90
10433;DHT22;5263;48.680;9.004;2023-04-01T15:04:26;9.80;99.90
10433;DHT22;5263;48.680;9.004;2023-04-01T15:07:18;9.80;99.90
10433;DHT22;5263;48.680;9.004;2023-04-01T15:10:02;9.70;99.90
10433;DHT22;5263;48.680;9.004;2023-04-01T15:13:05;9.50;99.90
10433;DHT22;5263;48.680;9.004;2023-04-01T15:15:51;9.70;99.90
10433;DHT22;5263;48.680;9.004;2023-04-01T15:21:21;10.10;99.90
10433;DHT22;5263;48.680;9.004;2023-04-01T15:26:42;10.20;99.90
10433;DHT22;5263;48.680;9.004;2023-04-01T15:30:38;10.10;99.90
10433;DHT22;5263;48.680;9.004;2023-04-01T15:33:45;9.80;99.90
10433;DHT22;5263;48.680;9.004;2023-04-01T15:36:16;9.80;99.90
10433;DHT22;5263;48.680;9.004;2023-04-01T15:39:00;9.90;99.90
10433;DHT22;5263;48.680;9.004;2023-04-01T15:44:37;9.80;99.90
10433;DHT22;5263;48.680;9.004;2023-04-01T16:15:12;8.90;99.90
10433;DHT22;5263;48.680;9.004;2023-04-01T16:20:57;9.10;99.90
10433;DHT22;5263;48.680;9.004;2023-04-01T16:23:36;9.30;99.90
10433;DHT22;5263;48.680;9.004;2023-04-01T16:26:39;9.40;99.90
10433;DHT22;5263;48.680;9.004;2023-04-01T16:34:24;9.40;99.90
10433;DHT22;5263;48.680;9.004;2023-04-01T16:37:03;9.50;99.90
10433;DHT22;5263;48.680;9.004;2023-04-01T16:39:46;9.50;99.90
10433;DHT22;5263;48.680;9.004;2023-04-01T16:45:30;9.60;99.90
10433;DHT22;5263;48.680;9.004;2023-04-01T16:48:11;9.20;99.90
10433;DHT22;5263;48.680;9.004;2023-04-01T16:50:59;9.20;99.90
10433;DHT22;5263;48.680;9.004;2023-04-01T16:53:35;9.00;99.90
10433;DHT22;5263;48.680;9.004;2023-04-01T16:58:41;9.00;99.90
10433;DHT22;5263;48.680;9.004;2023-04-01T17:01:16;9.10;99.90
10433;DHT22;5263;48.680;9.004;2023-04-01T17:03:47;9.00;99.90
10433;DHT22;5263;48.680;9.004;2023-04-01T17:06:31;9.00;99.90
10433;DHT22;5263;48.680;9.004;2023-04-01T17:12:40;9.10;99.90
10433;DHT22;5263;48.680;9.004;2023-04-01T17:21:15;9.10;99.90
10433;DHT22;5263;48.680;9.004;2023-04-01T17:23:53;9.10;99.90
10433;DHT22;5263;48.680;9.004;2023-04-01T17:31:45;8.90;99.90
10433;DHT22;5263;48.680;9.004;2023-04-01T17:34:35;8.90;99.90
10433;DHT22;5263;48.680;9.004;2023-04-01T17:48:45;8.80;99.90
10433;DHT22;5263;48.680;9.004;2023-04-01T18:02:52;8.60;99.90
10433;DHT22;5263;48.680;9.004;2023-04-01T18:11:16;8.40;99.90
10433;DHT22;5263;48.680;9.004;2023-04-01T18:17:08;8.40;99.90
10433;DHT22;5263;48.680;9.004;2023-04-01T18:20:02;8.30;99.90
10433;DHT22;5263;48.680;9.004;2023-04-01T18:25:30;7.80;99.90
10433;DHT22;5263;48.680;9.004;2023-04-01T18:36:44;7.20;99.90
10433;DHT22;5263;48.680;9.004;2023-04-01T18:41:59;7.30;99.90
10433;DHT22;5263;48.680;9.004;2023-04-01T18:50:13;7.10;99.90
10433;DHT22;5263;48.680;9.004;2023-04-01T18:52:44;7.20;99.90
10433;DHT22;5263;48.680;9.004;2023-04-01T18:57:49;7.00;99.90
10433;DHT22;5263;48.680;9.004;2023-04-01T19:00:21;6.90;99.90
10433;DHT22;5263;48.680;9.004;2023-04-01T19:05:45;6.80;99.90
10433;DHT22;5263;48.680;9.004;2023-04-01T19:08:26;6.80;99.90
10433;DHT22;5263;48.680;9.004;2023-04-01T19:21:58;6.70;99.90
10433;DHT22;5263;48.680;9.004;2023-04-01T19:27:35;6.70;99.90
10433;DHT22;5263;48.680;9.004;2023-04-01T19:30:32;6.60;99.90
10433;DHT22;5263;48.680;9.004;2023-04-01T19:35:58;6.60;99.90
10433;DHT22;5263;48.680;9.004;2023-04-01T19:38:40;6.50;99.90
10433;DHT22;5263;48.680;9.004;2023-04-01T19:41:39;6.50;99.90
10433;DHT22;5263;48.680;9.004;2023-04-01T19:49:56;6.40;99.90
10433;DHT22;5263;48.680;9.004;2023-04-01T19:52:33;6.40;99.90
10433;DHT22;5263;48.680;9.004;2023-04-01T20:00:58;6.50;99.90
10433;DHT22;5263;48.680;9.004;2023-04-01T20:11:57;6.60;99.90
10433;DHT22;5263;48.680;9.004;2023-04-01T20:17:20;6.50;99.90
10433;DHT22;5263;48.680;9.004;2023-04-01T20:30:43;6.90;99.90
10433;DHT22;5263;48.680;9.004;2023-04-01T20:39:15;7.00;99.90
10433;DHT22;5263;48.680;9.004;2023-04-01T20:42:24;7.00;99.90
10433;DHT22;5263;48.680;9.004;2023-04-01T20:50:28;7.20;99.90
10433;DHT22;5263;48.680;9.004;2023-04-01T21:04:23;7.00;99.90
10433;DHT22;5263;48.680;9.004;2023-04-01T21:09:55;7.10;99.90
10433;DHT22;5263;48.680;9.004;2023-04-01T21:12:58;7.20;99.90
10433;DHT22;5263;48.680;9.004;2023-04-01T21:15:48;7.20;99.90
10433;DHT22;5263;48.680;9.004;2023-04-01T21:26:47;7.20;99.90
10433;DHT22;5263;48.680;9.004;2023-04-01T21:29:42;7.30;99.90
10433;DHT22;5263;48.680;9.004;2023-04-01T21:45:28;7.20;99.90
10433;DHT22;5263;48.680;9.004;2023-04-01T21:57:24;7.20;99.90
10433;DHT22;5263;48.680;9.004;2023-04-01T22:05:22;7.20;99.90
10433;DHT22;5263;48.680;9.004;2023-04-01T22:08:11;7.10;99.90
10433;DHT22;5263;48.680;9.004;2023-04-01T22:21:14;7.10;99.90
10433;DHT22;5263;48.680;9.004;2023-04-01T22:24:25;7.10;99.90
10433;DHT22;5263;48.680;9.004;2023-04-01T22:29:38;7.10;99.90
10433;DHT22;5263;48.680;9.004;2023-04-01T22:32:37;7.10;99.90
10433;DHT22;5263;48.680;9.004;2023-04-01T22:38:33;6.90;99.90
10433;DHT22;5263;48.680;9.004;2023-04-01T22:41:53;6.90;99.90
10433;DHT22;5263;48.680;9.004;2023-04-01T22:43:56;7.00;99.90
10433;DHT22;5263;48.680;9.004;2023-04-01T22:49:45;6.80;99.90
10433;DHT22;5263;48.680;9.004;2023-04-01T22:52:25;6.80;99.90
10433;DHT22;5263;48.680;9.004;2023-04-01T22:54:58;6.60;99.90
10433;DHT22;5263;48.680;9.004;2023-04-01T23:00:27;6.50;99.90
10433;DHT22;5263;48.680;9.004;2023-04-01T23:05:55;6.30;99.90
10433;DHT22;5263;48.680;9.004;2023-04-01T23:08:35;6.30;99.90
10433;DHT22;5263;48.680;9.004;2023-04-01T23:11:14;6.30;99.90
10433;DHT22;5263;48.680;9.004;2023-04-01T23:13:47;6.20;99.90
10433;DHT22;5263;48.680;9.004;2023-04-01T23:16:25;6.20;99.90
10433;DHT22;5263;48.680;9.004;2023-04-01T23:19:03;6.20;99.90
10433;DHT22;5263;48.680;9.004;2023-04-01T23:21:49;6.10;99.90
10433;DHT22;5263;48.680;9.004;2023-04-01T23:27:32;6.10;99.90
10433;DHT22;5263;48.680;9.004;2023-04-01T23:30:02;6.00;99.90
10433;DHT22;5263;48.680;9.004;2023-04-01T23:32:28;5.90;99.90
10433;DHT22;5263;48.680;9.004;2023-04-01T23:34:57;6.00;99.90
10433;DHT22;5263;48.680;9.004;2023-04-01T23:37:24;6.00;99.90
10433;DHT22;5263;48.680;9.004;2023-04-01T23:39:53;6.10;99.90
10433;DHT22;5263;48.680;9.004;2023-04-01T23:42:31;6.20;99.90
10433;DHT22;5263;48.680;9.004;2023-04-01T23:45:17;6.10;99.90
10433;DHT22;5263;48.680;9.004;2023-04-01T23:47:46;6.20;99.90
10433;DHT22;5263;48.680;9.004;2023-04-01T23:50:18;6.20;99.90
10433;DHT22;5263;48.680;9.004;2023-04-01T23:53:02;6.20;99.90
10433;DHT22;5263;48.680;9.004;2023-04-01T23:55:31;6.10;99.90
